sensor_id;sensor_type;location;lat;lon;timestamp;pressure;altitude;pressure_sealevel;temperature;humidity
21821;BME280;11073;48.586;12.066;2022-07-23T00:02:12;96472.56;;;27.86;44.36
21821;BME280;11073;48.586;12.066;2022-07-23T00:04:41;96448.25;;;27.83;44.10
21821;BME280;11073;48.586;12.066;2022-07-23T00:07:10;96446.47;;;27.66;44.05
21821;BME280;11073;48.586;12.066;2022-07-23T00:09:38;96445.22;;;27.63;44.62
21821;BME280;11073;48.586;12.066;2022-07-23T00:12:08;96440.91;;;27.66;44.58
21821;BME280;11073;48.586;12.066;2022-07-23T00:14:37;96438.84;;;27.63;44.78
21821;BME280;11073;48.586;12.066;2022-07-23T00:17:06;96429.47;;;27.55;44.70
21821;BME280;11073;48.586;12.066;2022-07-23T00:19:35;96429.81;;;27.54;44.84
21821;BME280;11073;48.586;12.066;2022-07-23T00:22:04;96444.97;;;27.56;44.62
21821;BME280;11073;48.586;12.066;2022-07-23T00:24:33;96443.00;;;27.57;44.78
21821;BME280;11073;48.586;12.066;2022-07-23T00:27:02;96439.78;;;27.55;44.84
21821;BME280;11073;48.586;12.066;2022-07-23T00:29:32;96445.56;;;27.49;45.14
21821;BME280;11073;48.586;12.066;2022-07-23T00:32:01;96447.06;;;27.47;45.45
21821;BME280;11073;48.586;12.066;2022-07-23T00:34:30;96445.78;;;27.44;45.34
21821;BME280;11073;48.586;12.066;2022-07-23T00:36:58;96447.19;;;27.38;45.03
21821;BME280;11073;48.586;12.066;2022-07-23T00:39:27;96445.09;;;27.35;45.26
21821;BME280;11073;48.586;12.066;2022-07-23T00:41:56;96452.63;;;27.35;45.30
21821;BME280;11073;48.586;12.066;2022-07-23T00:44:26;96437.47;;;27.32;45.31
21821;BME280;11073;48.586;12.066;2022-07-23T00:46:58;96433.38;;;27.30;45.09
21821;BME280;11073;48.586;12.066;2022-07-23T00:49:29;96435.59;;;27.24;45.38
21821;BME280;11073;48.586;12.066;2022-07-23T00:52:01;96440.09;;;27.29;45.33
21821;BME280;11073;48.586;12.066;2022-07-23T00:54:29;96440.59;;;27.31;45.20
21821;BME280;11073;48.586;12.066;2022-07-23T00:56:58;96433.53;;;27.33;45.46
21821;BME280;11073;48.586;12.066;2022-07-23T00:59:27;96432.56;;;27.29;45.88
21821;BME280;11073;48.586;12.066;2022-07-23T01:01:58;96423.69;;;27.24;45.86
21821;BME280;11073;48.586;12.066;2022-07-23T01:04:27;96428.06;;;27.12;45.69
21821;BME280;11073;48.586;12.066;2022-07-23T01:06:56;96425.56;;;26.99;46.23
21821;BME280;11073;48.586;12.066;2022-07-23T01:09:24;96421.03;;;26.94;46.23
21821;BME280;11073;48.586;12.066;2022-07-23T01:11:54;96426.50;;;26.90;46.22
21821;BME280;11073;48.586;12.066;2022-07-23T01:14:23;96425.78;;;26.93;46.54
21821;BME280;11073;48.586;12.066;2022-07-23T01:16:52;96417.94;;;26.96;46.61
21821;BME280;11073;48.586;12.066;2022-07-23T01:19:22;96408.88;;;26.86;46.70
21821;BME280;11073;48.586;12.066;2022-07-23T01:21:53;96403.34;;;26.86;46.77
21821;BME280;11073;48.586;12.066;2022-07-23T01:24:24;96402.53;;;26.74;46.56
21821;BME280;11073;48.586;12.066;2022-07-23T01:27:03;96401.13;;;26.67;46.73
21821;BME280;11073;48.586;12.066;2022-07-23T01:29:36;96413.59;;;26.61;46.65
21821;BME280;11073;48.586;12.066;2022-07-23T01:32:10;96422.25;;;26.60;46.62
21821;BME280;11073;48.586;12.066;2022-07-23T01:34:39;96435.38;;;26.51;46.85
21821;BME280;11073;48.586;12.066;2022-07-23T01:37:08;96447.91;;;26.57;46.97
21821;BME280;11073;48.586;12.066;2022-07-23T01:39:39;96448.25;;;26.55;47.09
21821;BME280;11073;48.586;12.066;2022-07-23T01:42:08;96457.47;;;26.47;47.03
21821;BME280;11073;48.586;12.066;2022-07-23T01:44:38;96493.91;;;26.46;47.32
21821;BME280;11073;48.586;12.066;2022-07-23T01:47:11;96485.47;;;26.33;47.51
21821;BME280;11073;48.586;12.066;2022-07-23T01:49:40;96487.38;;;26.21;47.70
21821;BME280;11073;48.586;12.066;2022-07-23T01:52:38;96512.41;;;26.12;47.74
21821;BME280;11073;48.586;12.066;2022-07-23T01:55:09;96502.47;;;26.11;47.61
21821;BME280;11073;48.586;12.066;2022-07-23T01:57:48;96524.19;;;26.09;47.83
21821;BME280;11073;48.586;12.066;2022-07-23T02:00:20;96529.84;;;26.12;47.79
21821;BME280;11073;48.586;12.066;2022-07-23T02:02:51;96526.31;;;26.03;48.24
21821;BME280;11073;48.586;12.066;2022-07-23T02:05:20;96532.47;;;25.88;49.03
21821;BME280;11073;48.586;12.066;2022-07-23T02:07:49;96560.53;;;25.78;49.44
21821;BME280;11073;48.586;12.066;2022-07-23T02:10:19;96574.63;;;25.55;49.73
21821;BME280;11073;48.586;12.066;2022-07-23T02:12:48;96578.13;;;25.44;49.83
21821;BME280;11073;48.586;12.066;2022-07-23T02:15:17;96586.63;;;25.30;49.57
21821;BME280;11073;48.586;12.066;2022-07-23T02:17:46;96587.97;;;25.15;49.22
21821;BME280;11073;48.586;12.066;2022-07-23T02:20:15;96577.38;;;25.00;48.92
21821;BME280;11073;48.586;12.066;2022-07-23T02:22:44;96578.22;;;24.92;48.68
21821;BME280;11073;48.586;12.066;2022-07-23T02:25:13;96587.63;;;24.82;48.77
21821;BME280;11073;48.586;12.066;2022-07-23T02:27:43;96567.47;;;24.73;48.91
21821;BME280;11073;48.586;12.066;2022-07-23T02:30:12;96567.47;;;24.73;49.05
21821;BME280;11073;48.586;12.066;2022-07-23T02:32:40;96579.34;;;24.73;49.23
21821;BME280;11073;48.586;12.066;2022-07-23T02:35:10;96593.53;;;24.72;49.36
21821;BME280;11073;48.586;12.066;2022-07-23T02:37:39;96603.78;;;24.63;49.55
21821;BME280;11073;48.586;12.066;2022-07-23T02:40:08;96598.53;;;24.61;50.14
21821;BME280;11073;48.586;12.066;2022-07-23T02:42:39;96597.25;;;24.50;50.75
21821;BME280;11073;48.586;12.066;2022-07-23T02:45:10;96605.56;;;24.41;51.35
21821;BME280;11073;48.586;12.066;2022-07-23T02:47:40;96612.81;;;24.29;51.86
21821;BME280;11073;48.586;12.066;2022-07-23T02:50:09;96605.59;;;24.10;52.33
21821;BME280;11073;48.586;12.066;2022-07-23T02:52:39;96607.53;;;24.01;53.15
21821;BME280;11073;48.586;12.066;2022-07-23T02:55:07;96606.19;;;23.90;53.64
21821;BME280;11073;48.586;12.066;2022-07-23T02:57:36;96597.53;;;23.74;53.87
21821;BME280;11073;48.586;12.066;2022-07-23T03:00:06;96598.63;;;23.64;54.56
21821;BME280;11073;48.586;12.066;2022-07-23T03:02:36;96593.97;;;23.51;55.10
21821;BME280;11073;48.586;12.066;2022-07-23T03:05:06;96585.34;;;23.44;55.43
21821;BME280;11073;48.586;12.066;2022-07-23T03:07:35;96583.00;;;23.29;56.07
21821;BME280;11073;48.586;12.066;2022-07-23T03:10:05;96572.66;;;23.12;56.62
21821;BME280;11073;48.586;12.066;2022-07-23T03:12:33;96565.66;;;23.06;56.79
21821;BME280;11073;48.586;12.066;2022-07-23T03:15:03;96565.06;;;22.95;57.22
21821;BME280;11073;48.586;12.066;2022-07-23T03:17:33;96553.38;;;22.90;58.12
21821;BME280;11073;48.586;12.066;2022-07-23T03:20:05;96548.75;;;22.85;58.17
21821;BME280;11073;48.586;12.066;2022-07-23T03:22:34;96555.94;;;22.86;58.55
21821;BME280;11073;48.586;12.066;2022-07-23T03:25:04;96542.75;;;22.83;58.70
21821;BME280;11073;48.586;12.066;2022-07-23T03:27:34;96544.97;;;22.81;58.78
21821;BME280;11073;48.586;12.066;2022-07-23T03:30:04;96527.00;;;22.83;59.15
21821;BME280;11073;48.586;12.066;2022-07-23T03:32:33;96535.69;;;22.91;59.34
21821;BME280;11073;48.586;12.066;2022-07-23T03:35:05;96510.41;;;22.97;58.91
21821;BME280;11073;48.586;12.066;2022-07-23T03:37:41;96490.63;;;23.04;59.04
21821;BME280;11073;48.586;12.066;2022-07-23T03:40:13;96483.31;;;23.08;59.06
21821;BME280;11073;48.586;12.066;2022-07-23T03:42:42;96494.22;;;23.13;59.33
21821;BME280;11073;48.586;12.066;2022-07-23T03:45:10;96511.97;;;23.21;59.08
21821;BME280;11073;48.586;12.066;2022-07-23T03:47:39;96485.66;;;23.23;58.83
21821;BME280;11073;48.586;12.066;2022-07-23T03:50:09;96491.38;;;23.27;58.91
21821;BME280;11073;48.586;12.066;2022-07-23T03:52:38;96520.09;;;22.95;59.53
21821;BME280;11073;48.586;12.066;2022-07-23T03:55:07;96488.63;;;22.51;59.72
21821;BME280;11073;48.586;12.066;2022-07-23T03:57:36;96495.34;;;22.36;60.20
21821;BME280;11073;48.586;12.066;2022-07-23T04:00:07;96486.25;;;22.36;61.03
21821;BME280;11073;48.586;12.066;2022-07-23T04:02:44;96459.19;;;22.60;61.20
21821;BME280;11073;48.586;12.066;2022-07-23T04:05:14;96460.72;;;22.75;61.20
21821;BME280;11073;48.586;12.066;2022-07-23T04:07:43;96454.63;;;22.87;61.15
21821;BME280;11073;48.586;12.066;2022-07-23T04:10:12;96462.59;;;22.88;61.07
21821;BME280;11073;48.586;12.066;2022-07-23T04:12:41;96461.47;;;22.89;61.41
21821;BME280;11073;48.586;12.066;2022-07-23T04:15:10;96465.88;;;22.68;61.07
21821;BME280;11073;48.586;12.066;2022-07-23T04:17:38;96458.16;;;22.56;61.68
21821;BME280;11073;48.586;12.066;2022-07-23T04:20:09;96469.53;;;22.54;61.82
21821;BME280;11073;48.586;12.066;2022-07-23T04:22:46;96459.81;;;22.35;62.40
21821;BME280;11073;48.586;12.066;2022-07-23T04:25:14;96469.31;;;22.28;62.15
21821;BME280;11073;48.586;12.066;2022-07-23T04:27:44;96469.91;;;22.17;62.41
21821;BME280;11073;48.586;12.066;2022-07-23T04:30:12;96474.34;;;22.26;62.29
21821;BME280;11073;48.586;12.066;2022-07-23T04:32:41;96491.53;;;22.46;62.69
21821;BME280;11073;48.586;12.066;2022-07-23T04:35:18;96486.69;;;22.51;62.14
21821;BME280;11073;48.586;12.066;2022-07-23T04:37:51;96482.56;;;22.63;62.04
21821;BME280;11073;48.586;12.066;2022-07-23T04:40:20;96467.22;;;22.79;61.83
21821;BME280;11073;48.586;12.066;2022-07-23T04:42:49;96474.63;;;22.92;61.29
21821;BME280;11073;48.586;12.066;2022-07-23T04:45:18;96484.91;;;23.00;61.35
21821;BME280;11073;48.586;12.066;2022-07-23T04:47:48;96478.13;;;23.06;61.12
21821;BME280;11073;48.586;12.066;2022-07-23T04:50:16;96484.00;;;23.14;61.41
21821;BME280;11073;48.586;12.066;2022-07-23T04:52:54;96494.72;;;23.15;60.95
21821;BME280;11073;48.586;12.066;2022-07-23T04:55:23;96500.91;;;23.21;61.09
21821;BME280;11073;48.586;12.066;2022-07-23T04:57:52;96511.41;;;23.10;60.63
21821;BME280;11073;48.586;12.066;2022-07-23T05:00:20;96522.78;;;23.08;60.92
21821;BME280;11073;48.586;12.066;2022-07-23T05:02:51;96514.13;;;23.01;60.78
21821;BME280;11073;48.586;12.066;2022-07-23T05:05:20;96520.91;;;22.95;61.27
21821;BME280;11073;48.586;12.066;2022-07-23T05:07:50;96517.41;;;23.03;61.01
21821;BME280;11073;48.586;12.066;2022-07-23T05:10:20;96527.38;;;23.13;61.41
21821;BME280;11073;48.586;12.066;2022-07-23T05:12:48;96528.03;;;23.19;61.03
21821;BME280;11073;48.586;12.066;2022-07-23T05:15:19;96532.78;;;23.27;61.07
21821;BME280;11073;48.586;12.066;2022-07-23T05:17:47;96529.88;;;23.32;60.59
21821;BME280;11073;48.586;12.066;2022-07-23T05:20:17;96524.88;;;23.34;60.24
21821;BME280;11073;48.586;12.066;2022-07-23T05:22:46;96515.56;;;23.30;59.60
21821;BME280;11073;48.586;12.066;2022-07-23T05:25:15;96519.81;;;23.36;59.77
21821;BME280;11073;48.586;12.066;2022-07-23T05:27:44;96519.84;;;23.45;59.68
21821;BME280;11073;48.586;12.066;2022-07-23T05:30:13;96516.16;;;23.49;59.81
21821;BME280;11073;48.586;12.066;2022-07-23T05:32:44;96522.16;;;23.51;59.77
21821;BME280;11073;48.586;12.066;2022-07-23T05:35:16;96524.44;;;23.49;60.26
21821;BME280;11073;48.586;12.066;2022-07-23T05:37:57;96524.09;;;23.51;60.17
21821;BME280;11073;48.586;12.066;2022-07-23T05:40:26;96518.59;;;23.51;60.33
21821;BME280;11073;48.586;12.066;2022-07-23T05:42:55;96518.91;;;23.49;60.36
21821;BME280;11073;48.586;12.066;2022-07-23T05:45:24;96522.72;;;23.31;60.13
21821;BME280;11073;48.586;12.066;2022-07-23T05:47:53;96521.41;;;23.28;60.71
21821;BME280;11073;48.586;12.066;2022-07-23T05:50:27;96527.88;;;23.24;60.62
21821;BME280;11073;48.586;12.066;2022-07-23T05:53:01;96532.88;;;23.13;60.40
21821;BME280;11073;48.586;12.066;2022-07-23T05:55:56;96541.41;;;23.03;60.24
21821;BME280;11073;48.586;12.066;2022-07-23T05:58:27;96555.41;;;23.06;60.74
21821;BME280;11073;48.586;12.066;2022-07-23T06:00:56;96557.41;;;23.15;60.46
21821;BME280;11073;48.586;12.066;2022-07-23T06:03:27;96558.34;;;23.10;60.30
21821;BME280;11073;48.586;12.066;2022-07-23T06:05:56;96565.00;;;23.09;60.80
21821;BME280;11073;48.586;12.066;2022-07-23T06:08:25;96561.75;;;23.07;60.69
21821;BME280;11073;48.586;12.066;2022-07-23T06:10:54;96559.56;;;22.95;61.23
21821;BME280;11073;48.586;12.066;2022-07-23T06:13:22;96562.16;;;22.92;61.69
21821;BME280;11073;48.586;12.066;2022-07-23T06:15:53;96560.88;;;22.98;61.74
21821;BME280;11073;48.586;12.066;2022-07-23T06:18:21;96558.94;;;22.98;62.01
21821;BME280;11073;48.586;12.066;2022-07-23T06:20:50;96554.56;;;22.97;62.07
21821;BME280;11073;48.586;12.066;2022-07-23T06:23:26;96556.31;;;22.93;62.14
21821;BME280;11073;48.586;12.066;2022-07-23T06:25:55;96567.47;;;23.10;61.63
21821;BME280;11073;48.586;12.066;2022-07-23T06:28:24;96559.22;;;23.19;61.78
21821;BME280;11073;48.586;12.066;2022-07-23T06:30:54;96551.16;;;23.31;61.53
21821;BME280;11073;48.586;12.066;2022-07-23T06:33:24;96555.09;;;23.39;61.24
21821;BME280;11073;48.586;12.066;2022-07-23T06:35:52;96556.75;;;23.40;60.83
21821;BME280;11073;48.586;12.066;2022-07-23T06:38:21;96550.34;;;23.31;60.98
21821;BME280;11073;48.586;12.066;2022-07-23T06:40:50;96543.53;;;23.37;61.21
21821;BME280;11073;48.586;12.066;2022-07-23T06:43:19;96553.31;;;23.43;60.89
21821;BME280;11073;48.586;12.066;2022-07-23T06:45:54;96553.41;;;23.60;60.74
21821;BME280;11073;48.586;12.066;2022-07-23T06:48:23;96545.53;;;23.76;60.51
21821;BME280;11073;48.586;12.066;2022-07-23T06:50:51;96546.38;;;23.94;60.25
21821;BME280;11073;48.586;12.066;2022-07-23T06:53:23;96544.59;;;23.98;59.64
21821;BME280;11073;48.586;12.066;2022-07-23T06:55:52;96553.38;;;24.00;59.15
21821;BME280;11073;48.586;12.066;2022-07-23T06:58:21;96555.03;;;24.10;58.79
21821;BME280;11073;48.586;12.066;2022-07-23T07:00:50;96557.16;;;24.21;58.61
21821;BME280;11073;48.586;12.066;2022-07-23T07:03:21;96556.03;;;24.31;58.30
21821;BME280;11073;48.586;12.066;2022-07-23T07:05:49;96564.53;;;24.43;57.68
21821;BME280;11073;48.586;12.066;2022-07-23T07:08:19;96568.91;;;24.62;57.42
21821;BME280;11073;48.586;12.066;2022-07-23T07:10:47;96568.94;;;24.70;56.87
21821;BME280;11073;48.586;12.066;2022-07-23T07:13:16;96567.31;;;24.78;56.55
21821;BME280;11073;48.586;12.066;2022-07-23T07:15:45;96569.91;;;24.92;56.20
21821;BME280;11073;48.586;12.066;2022-07-23T07:18:13;96579.47;;;25.03;55.96
21821;BME280;11073;48.586;12.066;2022-07-23T07:20:43;96576.25;;;25.10;55.73
21821;BME280;11073;48.586;12.066;2022-07-23T07:23:12;96577.88;;;25.11;55.39
21821;BME280;11073;48.586;12.066;2022-07-23T07:25:42;96571.38;;;25.07;55.50
21821;BME280;11073;48.586;12.066;2022-07-23T07:28:10;96582.91;;;25.17;55.33
21821;BME280;11073;48.586;12.066;2022-07-23T07:30:39;96581.09;;;25.30;54.93
21821;BME280;11073;48.586;12.066;2022-07-23T07:33:07;96591.16;;;25.35;54.45
21821;BME280;11073;48.586;12.066;2022-07-23T07:35:36;96596.69;;;25.35;54.06
21821;BME280;11073;48.586;12.066;2022-07-23T07:38:06;96602.25;;;25.43;54.08
21821;BME280;11073;48.586;12.066;2022-07-23T07:40:34;96617.25;;;25.42;53.69
21821;BME280;11073;48.586;12.066;2022-07-23T07:43:03;96624.41;;;25.43;53.38
21821;BME280;11073;48.586;12.066;2022-07-23T07:45:32;96635.81;;;25.50;53.45
21821;BME280;11073;48.586;12.066;2022-07-23T07:48:01;96622.91;;;25.54;53.40
21821;BME280;11073;48.586;12.066;2022-07-23T07:50:29;96633.31;;;25.66;53.34
21821;BME280;11073;48.586;12.066;2022-07-23T07:52:58;96644.22;;;25.71;53.18
21821;BME280;11073;48.586;12.066;2022-07-23T07:55:28;96638.84;;;25.75;52.76
21821;BME280;11073;48.586;12.066;2022-07-23T07:57:56;96623.50;;;25.86;52.52
21821;BME280;11073;48.586;12.066;2022-07-23T08:00:29;96644.19;;;25.89;52.27
21821;BME280;11073;48.586;12.066;2022-07-23T08:02:59;96644.81;;;25.85;51.95
21821;BME280;11073;48.586;12.066;2022-07-23T08:05:30;96645.19;;;25.75;51.88
21821;BME280;11073;48.586;12.066;2022-07-23T08:07:59;96641.97;;;25.73;51.76
21821;BME280;11073;48.586;12.066;2022-07-23T08:10:29;96643.72;;;25.78;51.75
21821;BME280;11073;48.586;12.066;2022-07-23T08:12:59;96643.06;;;25.81;51.67
21821;BME280;11073;48.586;12.066;2022-07-23T08:15:29;96626.44;;;25.81;51.55
21821;BME280;11073;48.586;12.066;2022-07-23T08:17:59;96629.16;;;25.90;51.51
21821;BME280;11073;48.586;12.066;2022-07-23T08:20:28;96633.69;;;26.03;51.76
21821;BME280;11073;48.586;12.066;2022-07-23T08:22:58;96640.97;;;26.16;51.88
21821;BME280;11073;48.586;12.066;2022-07-23T08:25:29;96650.56;;;26.19;52.05
21821;BME280;11073;48.586;12.066;2022-07-23T08:28:01;96645.53;;;26.12;52.02
21821;BME280;11073;48.586;12.066;2022-07-23T08:30:30;96644.91;;;26.06;51.78
21821;BME280;11073;48.586;12.066;2022-07-23T08:33:00;96643.28;;;26.05;51.64
21821;BME280;11073;48.586;12.066;2022-07-23T08:35:31;96645.59;;;26.03;51.56
21821;BME280;11073;48.586;12.066;2022-07-23T08:38:02;96639.06;;;25.99;51.61
21821;BME280;11073;48.586;12.066;2022-07-23T08:40:33;96644.31;;;26.01;51.55
21821;BME280;11073;48.586;12.066;2022-07-23T08:43:12;96640.84;;;26.04;51.75
21821;BME280;11073;48.586;12.066;2022-07-23T08:45:42;96646.22;;;26.09;51.61
21821;BME280;11073;48.586;12.066;2022-07-23T08:48:13;96650.63;;;26.10;52.12
21821;BME280;11073;48.586;12.066;2022-07-23T08:50:44;96655.47;;;26.13;52.14
21821;BME280;11073;48.586;12.066;2022-07-23T08:53:16;96656.63;;;26.12;52.31
21821;BME280;11073;48.586;12.066;2022-07-23T08:55:45;96677.88;;;26.08;52.32
21821;BME280;11073;48.586;12.066;2022-07-23T08:58:15;96686.22;;;25.99;52.40
21821;BME280;11073;48.586;12.066;2022-07-23T09:00:47;96684.31;;;25.82;52.59
21821;BME280;11073;48.586;12.066;2022-07-23T09:03:18;96684.50;;;25.77;52.84
21821;BME280;11073;48.586;12.066;2022-07-23T09:05:47;96667.06;;;25.60;53.17
21821;BME280;11073;48.586;12.066;2022-07-23T09:08:18;96665.13;;;25.60;53.75
21821;BME280;11073;48.586;12.066;2022-07-23T09:10:51;96671.13;;;25.62;54.07
21821;BME280;11073;48.586;12.066;2022-07-23T09:13:30;96673.75;;;25.58;54.19
21821;BME280;11073;48.586;12.066;2022-07-23T09:16:01;96667.91;;;25.51;54.46
21821;BME280;11073;48.586;12.066;2022-07-23T09:18:32;96665.47;;;25.50;55.25
21821;BME280;11073;48.586;12.066;2022-07-23T09:21:15;96651.13;;;25.48;55.40
21821;BME280;11073;48.586;12.066;2022-07-23T09:23:46;96637.94;;;25.45;55.86
21821;BME280;11073;48.586;12.066;2022-07-23T09:26:33;96651.31;;;25.43;56.32
21821;BME280;11073;48.586;12.066;2022-07-23T09:29:06;96654.72;;;25.40;56.38
21821;BME280;11073;48.586;12.066;2022-07-23T09:31:49;96667.94;;;25.43;56.21
21821;BME280;11073;48.586;12.066;2022-07-23T09:34:20;96678.69;;;25.44;56.21
21821;BME280;11073;48.586;12.066;2022-07-23T09:36:51;96686.31;;;25.47;56.20
21821;BME280;11073;48.586;12.066;2022-07-23T09:39:28;96681.44;;;25.53;56.01
21821;BME280;11073;48.586;12.066;2022-07-23T09:41:58;96706.22;;;25.58;55.91
21821;BME280;11073;48.586;12.066;2022-07-23T09:44:42;96703.75;;;25.56;55.79
21821;BME280;11073;48.586;12.066;2022-07-23T09:47:12;96689.38;;;25.63;55.90
21821;BME280;11073;48.586;12.066;2022-07-23T09:49:57;96695.03;;;25.93;55.57
21821;BME280;11073;48.586;12.066;2022-07-23T09:52:30;96700.19;;;26.11;55.49
21821;BME280;11073;48.586;12.066;2022-07-23T09:55:04;96694.31;;;26.13;54.98
21821;BME280;11073;48.586;12.066;2022-07-23T09:57:33;96686.59;;;26.27;54.85
21821;BME280;11073;48.586;12.066;2022-07-23T10:00:06;96681.75;;;26.54;54.50
21821;BME280;11073;48.586;12.066;2022-07-23T10:02:37;96690.03;;;26.83;54.24
21821;BME280;11073;48.586;12.066;2022-07-23T10:05:25;96680.53;;;27.14;53.59
21821;BME280;11073;48.586;12.066;2022-07-23T10:08:13;96683.75;;;27.37;52.91
21821;BME280;11073;48.586;12.066;2022-07-23T10:11:12;96692.59;;;27.72;52.42
21821;BME280;11073;48.586;12.066;2022-07-23T10:13:59;96695.56;;;28.00;51.81
21821;BME280;11073;48.586;12.066;2022-07-23T10:17:00;96679.72;;;28.49;51.29
21821;BME280;11073;48.586;12.066;2022-07-23T10:19:29;96677.03;;;28.65;50.17
21821;BME280;11073;48.586;12.066;2022-07-23T10:22:00;96690.28;;;28.68;49.18
21821;BME280;11073;48.586;12.066;2022-07-23T10:24:46;96687.13;;;28.94;48.26
21821;BME280;11073;48.586;12.066;2022-07-23T10:27:55;96695.81;;;29.33;47.44
21821;BME280;11073;48.586;12.066;2022-07-23T10:30:32;96693.94;;;29.49;47.16
21821;BME280;11073;48.586;12.066;2022-07-23T10:33:15;96701.94;;;29.79;46.52
21821;BME280;11073;48.586;12.066;2022-07-23T10:35:52;96685.97;;;30.07;45.94
21821;BME280;11073;48.586;12.066;2022-07-23T10:38:25;96695.00;;;30.32;45.51
21821;BME280;11073;48.586;12.066;2022-07-23T10:40:57;96688.38;;;30.56;45.48
21821;BME280;11073;48.586;12.066;2022-07-23T10:43:26;96683.59;;;30.88;44.62
21821;BME280;11073;48.586;12.066;2022-07-23T10:45:56;96676.88;;;31.09;44.40
21821;BME280;11073;48.586;12.066;2022-07-23T10:52:19;96660.16;;;31.12;42.60
21821;BME280;11073;48.586;12.066;2022-07-23T10:54:50;96657.69;;;31.26;42.28
21821;BME280;11073;48.586;12.066;2022-07-23T10:57:20;96674.03;;;31.44;42.07
21821;BME280;11073;48.586;12.066;2022-07-23T11:00:12;96666.00;;;31.81;41.27
21821;BME280;11073;48.586;12.066;2022-07-23T11:02:42;96659.47;;;32.19;40.82
21821;BME280;11073;48.586;12.066;2022-07-23T11:05:13;96656.25;;;32.17;39.34
21821;BME280;11073;48.586;12.066;2022-07-23T11:08:12;96642.03;;;32.29;38.96
21821;BME280;11073;48.586;12.066;2022-07-23T11:10:44;96662.91;;;32.55;38.31
21821;BME280;11073;48.586;12.066;2022-07-23T11:13:38;96661.22;;;32.50;37.81
21821;BME280;11073;48.586;12.066;2022-07-23T11:16:16;96661.97;;;32.47;37.30
21821;BME280;11073;48.586;12.066;2022-07-23T11:19:15;96650.25;;;32.38;36.60
21821;BME280;11073;48.586;12.066;2022-07-23T11:21:50;96646.84;;;32.29;36.64
21821;BME280;11073;48.586;12.066;2022-07-23T11:24:21;96648.31;;;32.23;36.82
21821;BME280;11073;48.586;12.066;2022-07-23T11:26:55;96651.69;;;32.55;37.07
21821;BME280;11073;48.586;12.066;2022-07-23T11:29:46;96641.47;;;32.92;36.71
21821;BME280;11073;48.586;12.066;2022-07-23T11:32:36;96643.91;;;32.71;36.42
21821;BME280;11073;48.586;12.066;2022-07-23T11:35:21;96643.53;;;32.73;36.75
21821;BME280;11073;48.586;12.066;2022-07-23T11:37:52;96625.34;;;32.86;36.29
21821;BME280;11073;48.586;12.066;2022-07-23T11:40:26;96630.59;;;33.17;36.32
21821;BME280;11073;48.586;12.066;2022-07-23T11:42:57;96619.84;;;33.57;35.77
21821;BME280;11073;48.586;12.066;2022-07-23T11:45:31;96623.28;;;33.80;35.56
21821;BME280;11073;48.586;12.066;2022-07-23T11:48:00;96623.19;;;34.07;35.25
21821;BME280;11073;48.586;12.066;2022-07-23T11:50:29;96617.72;;;34.24;34.86
21821;BME280;11073;48.586;12.066;2022-07-23T11:52:59;96619.91;;;34.45;34.39
21821;BME280;11073;48.586;12.066;2022-07-23T11:55:28;96618.03;;;34.64;34.13
21821;BME280;11073;48.586;12.066;2022-07-23T11:57:57;96622.88;;;34.67;33.52
21821;BME280;11073;48.586;12.066;2022-07-23T12:00:29;96609.09;;;34.47;33.31
21821;BME280;11073;48.586;12.066;2022-07-23T12:03:02;96609.97;;;34.11;33.08
21821;BME280;11073;48.586;12.066;2022-07-23T12:05:33;96601.00;;;33.91;33.70
21821;BME280;11073;48.586;12.066;2022-07-23T12:08:05;96602.09;;;34.27;33.77
21821;BME280;11073;48.586;12.066;2022-07-23T12:10:37;96602.56;;;34.36;33.46
21821;BME280;11073;48.586;12.066;2022-07-23T12:13:07;96602.38;;;34.63;33.54
21821;BME280;11073;48.586;12.066;2022-07-23T12:15:39;96588.03;;;34.78;32.93
21821;BME280;11073;48.586;12.066;2022-07-23T12:18:12;96590.53;;;34.98;32.94
21821;BME280;11073;48.586;12.066;2022-07-23T12:20:42;96593.81;;;35.07;32.44
21821;BME280;11073;48.586;12.066;2022-07-23T12:23:14;96583.25;;;34.86;32.10
21821;BME280;11073;48.586;12.066;2022-07-23T12:25:48;96587.09;;;34.57;32.38
21821;BME280;11073;48.586;12.066;2022-07-23T12:28:19;96591.19;;;34.73;32.70
21821;BME280;11073;48.586;12.066;2022-07-23T12:30:50;96593.47;;;35.26;32.49
21821;BME280;11073;48.586;12.066;2022-07-23T12:33:22;96595.63;;;35.58;31.97
21821;BME280;11073;48.586;12.066;2022-07-23T12:35:53;96596.03;;;35.60;31.94
21821;BME280;11073;48.586;12.066;2022-07-23T12:38:25;96591.53;;;35.41;31.62
21821;BME280;11073;48.586;12.066;2022-07-23T12:40:56;96586.16;;;35.00;31.87
21821;BME280;11073;48.586;12.066;2022-07-23T12:43:27;96589.56;;;34.69;32.20
21821;BME280;11073;48.586;12.066;2022-07-23T12:45:57;96577.84;;;34.56;32.45
21821;BME280;11073;48.586;12.066;2022-07-23T12:48:31;96581.50;;;34.64;31.92
21821;BME280;11073;48.586;12.066;2022-07-23T12:51:03;96584.63;;;34.51;32.41
21821;BME280;11073;48.586;12.066;2022-07-23T12:53:40;96581.09;;;34.65;32.59
21821;BME280;11073;48.586;12.066;2022-07-23T12:56:11;96575.09;;;34.67;32.36
21821;BME280;11073;48.586;12.066;2022-07-23T12:58:45;96576.38;;;34.80;32.49
21821;BME280;11073;48.586;12.066;2022-07-23T13:01:23;96578.91;;;34.99;32.27
21821;BME280;11073;48.586;12.066;2022-07-23T13:03:59;96575.97;;;34.78;32.25
21821;BME280;11073;48.586;12.066;2022-07-23T13:06:30;96578.81;;;34.89;32.20
21821;BME280;11073;48.586;12.066;2022-07-23T13:09:00;96581.84;;;35.28;31.94
21821;BME280;11073;48.586;12.066;2022-07-23T13:11:30;96583.56;;;35.57;31.53
21821;BME280;11073;48.586;12.066;2022-07-23T13:14:00;96586.41;;;35.64;31.70
21821;BME280;11073;48.586;12.066;2022-07-23T13:16:32;96588.44;;;35.71;30.77
21821;BME280;11073;48.586;12.066;2022-07-23T13:19:02;96587.13;;;35.47;30.75